Time;durP1;ratioP1;P1;durP2;ratioP2;P2;SDS_P1;SDS_P2;PMS_P1;PMS_P2;Temp;Humidity;BMP_temperature;BMP_pressure;BME280_temperature;BME280_humidity;BME280_pressure;Samples;Min_cycle;Max_cycle;Signal;HPM_P1;HPM_P2
2021/03/12 00:00:24;;;;;;;10.35;1.95;;;8.00;99.90;;;;;;5070365;28;20033;-74
2021/03/12 00:02:50;;;;;;;9.32;1.50;;;8.00;99.90;;;;;;5073415;28;20024;-73
2021/03/12 00:05:16;;;;;;;18.88;3.90;;;8.00;99.90;;;;;;5072138;28;20563;-74
2021/03/12 00:07:42;;;;;;;16.70;2.05;;;8.10;99.90;;;;;;5072384;28;20111;-73
2021/03/12 00:10:14;;;;;;;18.60;2.28;;;8.10;99.90;;;;;;5073395;28;20100;-73
2021/03/12 00:12:40;;;;;;;19.08;2.97;;;8.00;99.90;;;;;;5072983;28;20028;-73
2021/03/12 00:15:12;;;;;;;12.82;1.77;;;8.00;99.90;;;;;;5073131;28;20487;-73
2021/03/12 00:17:38;;;;;;;10.65;1.92;;;7.90;99.90;;;;;;5071625;28;20052;-73
2021/03/12 00:20:09;;;;;;;15.82;2.33;;;7.90;99.90;;;;;;5071743;28;20560;-72
2021/03/12 00:22:35;;;;;;;18.05;1.60;;;7.90;99.90;;;;;;5071838;28;20028;-73
2021/03/12 00:25:00;;;;;;;5.35;1.30;;;8.00;99.90;;;;;;5071616;28;20035;-72
2021/03/12 00:27:26;;;;;;;19.17;3.58;;;8.00;99.90;;;;;;5071553;28;20056;-72
2021/03/12 00:29:52;;;;;;;7.00;1.33;;;8.00;99.90;;;;;;5071390;28;20028;-73
2021/03/12 00:32:17;;;;;;;13.50;1.70;;;7.90;99.90;;;;;;5070483;28;20434;-73
2021/03/12 00:34:43;;;;;;;6.57;1.35;;;7.90;99.90;;;;;;5070088;28;20032;-73
2021/03/12 00:37:09;;;;;;;15.32;1.73;;;7.90;99.90;;;;;;5070504;28;20401;-73
2021/03/12 00:39:34;;;;;;;11.85;2.70;;;7.90;99.90;;;;;;5070672;28;20032;-73
2021/03/12 00:42:00;;;;;;;13.18;1.48;;;7.80;99.90;;;;;;5072248;28;20507;-74
2021/03/12 00:44:26;;;;;;;16.92;1.65;;;7.80;99.90;;;;;;5071472;28;20033;-73
2021/03/12 00:46:52;;;;;;;8.27;1.88;;;7.80;99.90;;;;;;5070935;28;20032;-73
2021/03/12 00:49:19;;;;;;;8.65;2.08;;;7.90;99.90;;;;;;5070506;28;20025;-73
2021/03/12 00:51:44;;;;;;;12.13;1.33;;;7.90;99.90;;;;;;5070771;28;20376;-73
2021/03/12 00:54:10;;;;;;;8.70;1.55;;;7.80;99.90;;;;;;5071773;28;20037;-73
2021/03/12 00:56:36;;;;;;;12.07;1.17;;;7.80;99.90;;;;;;5071180;28;20444;-73
2021/03/12 00:59:01;;;;;;;7.82;1.17;;;7.80;99.90;;;;;;5072759;28;20062;-73
2021/03/12 01:01:27;;;;;;;6.35;1.60;;;7.80;99.90;;;;;;5072464;28;20044;-74
2021/03/12 01:03:52;;;;;;;9.82;1.45;;;7.80;99.90;;;;;;5073688;28;20027;-73
2021/03/12 01:06:18;;;;;;;6.68;1.70;;;7.80;99.90;;;;;;5072506;28;20484;-74
2021/03/12 01:08:44;;;;;;;5.97;1.27;;;7.70;99.90;;;;;;5073130;28;20025;-73
2021/03/12 01:11:09;;;;;;;10.80;1.77;;;7.70;99.90;;;;;;5071916;28;20061;-73
2021/03/12 01:13:35;;;;;;;19.17;2.20;;;7.70;99.90;;;;;;5072954;28;20024;-74
2021/03/12 01:16:00;;;;;;;16.55;1.92;;;7.60;99.90;;;;;;5070778;28;20077;-73
2021/03/12 01:18:26;;;;;;;11.75;1.15;;;7.60;99.90;;;;;;5072423;28;20051;-73
2021/03/12 01:20:52;;;;;;;12.20;1.95;;;7.60;99.90;;;;;;5070350;28;20044;-73
2021/03/12 01:23:17;;;;;;;10.10;1.88;;;7.50;99.90;;;;;;5072241;28;20040;-73
2021/03/12 01:25:45;;;;;;;10.13;1.40;;;7.50;99.90;;;;;;5071597;28;20079;-73
2021/03/12 01:28:11;;;;;;;11.07;1.27;;;7.50;99.90;;;;;;5072117;28;20489;-73
2021/03/12 01:30:40;;;;;;;11.25;2.22;;;7.50;99.90;;;;;;5072309;28;20033;-73
2021/03/12 01:33:06;;;;;;;11.93;1.90;;;7.50;99.90;;;;;;5072266;28;20530;-73
2021/03/12 01:35:32;;;;;;;7.20;1.40;;;7.50;99.90;;;;;;5070575;28;20361;-73
2021/03/12 01:37:58;;;;;;;6.68;1.42;;;7.40;99.90;;;;;;5071104;28;20115;-75
2021/03/12 01:40:26;;;;;;;5.03;1.20;;;7.50;99.90;;;;;;5070684;28;20059;-73
2021/03/12 01:42:52;;;;;;;;;;;7.40;99.90;;;;;;5070987;28;20037;-73
2021/03/12 01:45:21;;;;;;;9.75;1.23;;;7.40;99.90;;;;;;5075042;28;19942;-73
2021/03/12 01:47:49;;;;;;;12.32;2.15;;;7.40;99.90;;;;;;5074403;28;20032;-73
2021/03/12 01:50:15;;;;;;;17.17;1.70;;;7.50;99.90;;;;;;5074535;28;20044;-72
2021/03/12 01:52:42;;;;;;;17.45;2.78;;;7.50;99.90;;;;;;5083411;28;20016;-75
2021/03/12 01:55:17;;;;;;;7.65;1.20;;;7.40;99.90;;;;;;5075892;28;20032;-74
2021/03/12 01:57:43;;;;;;;11.25;1.92;;;7.50;99.90;;;;;;5075572;28;20029;-74
2021/03/12 02:00:09;;;;;;;9.40;1.73;;;7.50;99.90;;;;;;5075794;28;20024;-75
2021/03/12 02:02:35;;;;;;;16.65;2.35;;;7.50;99.90;;;;;;5073770;28;20040;-74
2021/03/12 02:05:01;;;;;;;16.90;2.75;;;7.50;99.90;;;;;;5074596;28;20032;-74
2021/03/12 02:07:26;;;;;;;12.80;1.88;;;7.60;99.90;;;;;;5075854;28;20032;-74
2021/03/12 02:09:52;;;;;;;8.70;1.50;;;7.60;99.90;;;;;;5075236;28;20024;-75
2021/03/12 02:12:36;;;;;;;16.63;2.08;;;7.60;99.90;;;;;;5075381;28;20028;-74
2021/03/12 02:15:37;;;;;;;12.63;2.00;;;7.50;99.90;;;;;;5065978;28;20137;-74
2021/03/12 02:18:06;;;;;;;10.32;2.63;;;7.50;99.90;;;;;;5067873;28;20068;-73
2021/03/12 02:20:39;;;;;;;11.63;2.30;;;7.60;99.90;;;;;;5072934;28;20048;-74
2021/03/12 02:23:16;;;;;;;14.25;2.53;;;7.60;99.90;;;;;;5073906;28;20029;-73
2021/03/12 02:25:46;;;;;;;7.50;2.00;;;7.60;99.90;;;;;;5074800;28;20481;-73
2021/03/12 02:28:12;;;;;;;18.45;1.83;;;7.60;99.90;;;;;;5073908;28;20526;-73
2021/03/12 02:30:40;;;;;;;10.90;2.28;;;7.60;99.90;;;;;;5071046;28;20035;-73
2021/03/12 02:33:05;;;;;;;15.40;2.10;;;7.70;99.90;;;;;;5074617;28;20028;-74
2021/03/12 02:35:32;;;;;;;19.48;2.22;;;7.60;99.90;;;;;;5073867;28;20370;-73
2021/03/12 02:37:59;;;;;;;17.25;3.15;;;7.60;99.90;;;;;;5070272;28;20028;-74
2021/03/12 02:40:26;;;;;;;13.20;1.77;;;7.50;99.90;;;;;;5073648;28;20070;-74
2021/03/12 02:42:53;;;;;;;19.02;2.15;;;7.50;99.90;;;;;;5074137;28;20021;-74
2021/03/12 02:45:20;;;;;;;14.07;2.38;;;7.40;99.90;;;;;;5078768;28;20048;-74
2021/03/12 02:47:46;;;;;;;16.47;1.93;;;7.40;99.90;;;;;;5070988;28;20392;-75
2021/03/12 02:50:13;;;;;;;13.25;2.05;;;7.40;99.90;;;;;;5073788;28;20271;-74
2021/03/12 02:52:39;;;;;;;10.85;1.98;;;7.40;99.90;;;;;;5072515;28;20025;-74
2021/03/12 02:55:07;;;;;;;16.27;2.38;;;7.40;99.90;;;;;;5072543;28;20090;-74
2021/03/12 02:57:33;;;;;;;13.77;2.40;;;7.20;99.90;;;;;;5072692;28;20039;-74
2021/03/12 02:59:59;;;;;;;16.63;2.53;;;7.20;99.90;;;;;;5074182;28;20107;-73
2021/03/12 03:02:27;;;;;;;21.10;2.67;;;7.10;99.90;;;;;;5073647;28;20166;-74
2021/03/12 03:04:55;;;;;;;7.80;1.45;;;7.10;99.90;;;;;;5072825;28;20482;-74
2021/03/12 03:07:22;;;;;;;13.10;2.30;;;7.00;99.90;;;;;;5069206;28;20422;-73
2021/03/12 03:09:50;;;;;;;23.23;2.10;;;6.90;99.90;;;;;;5072775;28;20598;-74
2021/03/12 03:12:20;;;;;;;14.27;1.65;;;6.80;99.90;;;;;;5072963;28;20028;-75
2021/03/12 03:14:50;;;;;;;14.45;2.70;;;6.80;99.90;;;;;;5072022;28;20107;-74
2021/03/12 03:17:17;;;;;;;12.00;1.80;;;6.60;99.90;;;;;;5072127;28;20036;-74
2021/03/12 03:19:48;;;;;;;12.50;1.75;;;6.50;99.90;;;;;;5069681;28;20048;-74
2021/03/12 03:22:15;;;;;;;27.00;3.45;;;6.50;99.90;;;;;;5073080;28;20040;-74
2021/03/12 03:24:41;;;;;;;13.75;1.98;;;6.50;99.90;;;;;;5072205;28;20052;-74
2021/03/12 03:27:07;;;;;;;16.65;1.80;;;6.50;99.90;;;;;;5073858;28;20056;-74
2021/03/12 03:29:33;;;;;;;14.15;2.78;;;6.40;99.90;;;;;;5072809;28;20079;-73
2021/03/12 03:32:00;;;;;;;15.02;1.80;;;6.40;99.90;;;;;;5072251;28;20614;-73
2021/03/12 03:34:26;;;;;;;18.73;2.42;;;6.40;99.90;;;;;;5072874;28;20126;-73
2021/03/12 03:39:38;;;;;;;20.40;2.70;;;6.50;99.90;;;;;;5073546;28;20039;-72
2021/03/12 03:42:04;;;;;;;17.05;2.20;;;6.40;99.90;;;;;;5072002;28;20038;-74
2021/03/12 03:44:34;;;;;;;19.30;1.83;;;6.40;99.90;;;;;;5071364;28;20073;-73
2021/03/12 03:47:03;;;;;;;15.38;1.88;;;6.40;99.90;;;;;;5073029;28;20453;-74
2021/03/12 03:49:33;;;;;;;19.02;2.08;;;6.40;99.90;;;;;;5071221;28;20035;-74
2021/03/12 03:52:01;;;;;;;10.80;2.20;;;6.40;99.90;;;;;;5071537;28;20013;-73
2021/03/12 03:54:27;;;;;;;14.20;1.88;;;6.40;99.90;;;;;;5073095;28;20143;-74
2021/03/12 03:56:54;;;;;;;22.58;2.38;;;6.50;99.90;;;;;;5073284;28;20365;-74
2021/03/12 03:59:20;;;;;;;14.68;1.70;;;6.40;99.90;;;;;;5071283;28;20078;-74
2021/03/12 04:01:47;;;;;;;10.82;1.63;;;6.40;99.90;;;;;;5073454;28;20029;-74
2021/03/12 04:04:14;;;;;;;19.50;2.63;;;6.40;99.90;;;;;;5071535;28;20042;-74
2021/03/12 04:06:42;;;;;;;15.10;1.67;;;6.50;99.90;;;;;;5075026;28;20025;-75
2021/03/12 04:09:10;;;;;;;10.68;1.50;;;6.50;99.90;;;;;;5071579;28;20111;-73
2021/03/12 04:11:36;;;;;;;10.95;1.65;;;6.50;99.90;;;;;;5072809;28;20028;-74
2021/03/12 04:14:03;;;;;;;21.27;2.10;;;6.40;99.90;;;;;;5073002;28;20024;-73
2021/03/12 04:16:29;;;;;;;11.82;2.00;;;6.40;99.90;;;;;;5072205;28;20063;-75
2021/03/12 04:18:58;;;;;;;13.27;1.60;;;6.40;99.90;;;;;;5071399;28;20028;-74
2021/03/12 04:21:25;;;;;;;15.98;2.25;;;6.30;99.90;;;;;;5072177;28;20049;-73
2021/03/12 04:23:51;;;;;;;15.38;2.03;;;6.20;99.90;;;;;;5072554;28;20048;-75
2021/03/12 04:26:17;;;;;;;17.25;2.35;;;6.20;99.90;;;;;;5072668;28;20033;-74
2021/03/12 04:28:43;;;;;;;9.25;2.78;;;6.20;99.90;;;;;;5072372;28;20024;-73
2021/03/12 04:31:09;;;;;;;6.93;1.40;;;6.20;99.90;;;;;;5071117;28;20032;-74
2021/03/12 04:33:35;;;;;;;14.10;2.03;;;6.20;99.90;;;;;;5070649;28;20031;-75
2021/03/12 04:36:02;;;;;;;9.07;1.60;;;6.20;99.90;;;;;;5067840;28;20074;-74
2021/03/12 04:38:29;;;;;;;10.50;1.77;;;6.20;99.90;;;;;;5072449;28;20362;-73
2021/03/12 04:40:54;;;;;;;9.23;1.75;;;6.20;99.90;;;;;;5072308;28;20051;-74
2021/03/12 04:43:21;;;;;;;13.02;2.33;;;6.20;99.90;;;;;;5070801;28;20028;-74
2021/03/12 04:45:47;;;;;;;9.52;1.80;;;6.10;99.90;;;;;;5072066;28;20048;-74
2021/03/12 04:48:14;;;;;;;10.25;2.17;;;6.20;99.90;;;;;;5070474;28;20452;-74
2021/03/12 04:50:41;;;;;;;11.53;1.33;;;6.10;99.90;;;;;;5070737;28;20035;-73
2021/03/12 04:53:07;;;;;;;6.25;1.33;;;6.00;99.90;;;;;;5070174;28;20024;-73
2021/03/12 04:55:34;;;;;;;9.30;1.67;;;6.10;99.90;;;;;;5071123;28;20029;-74
2021/03/12 04:58:01;;;;;;;16.85;2.53;;;6.10;99.90;;;;;;5070904;28;20016;-74
2021/03/12 05:00:28;;;;;;;7.35;1.17;;;6.10;99.90;;;;;;5071756;28;20060;-74
2021/03/12 05:02:55;;;;;;;16.95;1.50;;;6.10;99.90;;;;;;5070188;28;20024;-74
2021/03/12 05:05:22;;;;;;;11.25;1.90;;;6.10;99.90;;;;;;5071106;28;20036;-74
2021/03/12 05:07:49;;;;;;;14.85;1.77;;;6.10;99.90;;;;;;5068281;28;20036;-74
2021/03/12 05:10:15;;;;;;;11.93;1.73;;;6.00;99.90;;;;;;5070921;28;20016;-74
2021/03/12 05:12:41;;;;;;;6.57;1.42;;;6.00;99.90;;;;;;5071181;28;20142;-74
2021/03/12 05:15:07;;;;;;;13.77;2.22;;;5.90;99.90;;;;;;5071131;28;20107;-75
2021/03/12 05:17:33;;;;;;;9.10;1.77;;;6.00;99.90;;;;;;5070310;28;20412;-74
2021/03/12 05:19:58;;;;;;;15.18;2.80;;;6.00;99.90;;;;;;5072606;28;20048;-74
2021/03/12 05:22:24;;;;;;;18.98;2.78;;;6.10;99.90;;;;;;5070720;28;20021;-72
2021/03/12 05:24:50;;;;;;;6.28;1.10;;;6.10;99.90;;;;;;5072323;28;20044;-72
2021/03/12 05:27:15;;;;;;;12.00;2.28;;;6.10;99.90;;;;;;5071409;28;20461;-73
2021/03/12 05:29:41;;;;;;;12.57;1.85;;;6.10;99.90;;;;;;5072573;28;20024;-73
2021/03/12 05:32:07;;;;;;;20.67;2.42;;;6.00;99.90;;;;;;5071169;28;20028;-73
2021/03/12 05:34:33;;;;;;;14.32;1.55;;;6.00;99.90;;;;;;5068809;28;20032;-73
2021/03/12 05:36:58;;;;;;;15.43;2.28;;;6.00;99.90;;;;;;5070884;28;20064;-74
2021/03/12 05:39:24;;;;;;;6.15;1.70;;;6.00;99.90;;;;;;5070776;28;20036;-74
2021/03/12 05:41:51;;;;;;;6.60;1.33;;;6.00;99.90;;;;;;5072000;28;20028;-72
2021/03/12 05:44:17;;;;;;;9.07;1.35;;;6.00;99.90;;;;;;5072865;28;20089;-73
2021/03/12 05:46:43;;;;;;;9.63;1.58;;;5.90;99.90;;;;;;5072586;28;20029;-73
2021/03/12 05:49:09;;;;;;;6.43;1.45;;;6.00;99.90;;;;;;5071786;28;20124;-74
2021/03/12 05:51:36;;;;;;;16.85;2.22;;;5.90;99.90;;;;;;5072209;28;20031;-74
2021/03/12 05:54:05;;;;;;;13.02;1.35;;;5.90;99.90;;;;;;5072445;28;20025;-73
2021/03/12 05:56:35;;;;;;;10.32;2.10;;;6.00;99.90;;;;;;5071970;28;20097;-73
2021/03/12 05:59:05;;;;;;;13.77;2.13;;;6.00;99.90;;;;;;5072350;28;20098;-73
2021/03/12 06:01:31;;;;;;;16.85;2.75;;;5.90;99.90;;;;;;5070508;28;20495;-74
2021/03/12 06:03:57;;;;;;;13.02;1.95;;;5.90;99.90;;;;;;5067354;28;20029;-73
2021/03/12 06:06:23;;;;;;;18.10;2.97;;;5.90;99.90;;;;;;5060997;28;20477;-73
2021/03/12 06:08:48;;;;;;;11.32;2.17;;;5.80;99.90;;;;;;5071258;28;20035;-73
2021/03/12 06:11:14;;;;;;;14.63;2.58;;;5.80;99.90;;;;;;5071909;28;20021;-74
2021/03/12 06:13:50;;;;;;;11.05;1.88;;;5.90;99.90;;;;;;5069973;28;20033;-74
2021/03/12 06:16:29;;;;;;;13.57;2.05;;;5.90;99.90;;;;;;5068743;28;20532;-72
2021/03/12 06:19:18;;;;;;;16.80;2.53;;;5.80;99.90;;;;;;5072577;28;20032;-73
2021/03/12 06:21:48;;;;;;;16.85;2.40;;;5.90;99.90;;;;;;5070277;28;20037;-73
2021/03/12 06:24:27;;;;;;;7.82;1.48;;;5.90;99.90;;;;;;5070464;28;20033;-73
2021/03/12 06:26:53;;;;;;;16.88;2.10;;;5.90;99.90;;;;;;5070069;28;20078;-73
2021/03/12 06:29:37;;;;;;;22.48;2.67;;;5.90;99.90;;;;;;5071601;28;20017;-74
2021/03/12 06:32:04;;;;;;;13.40;2.25;;;5.80;99.90;;;;;;5072649;28;20615;-74
2021/03/12 06:34:30;;;;;;;11.48;2.28;;;5.90;99.90;;;;;;5072798;28;20071;-73
2021/03/12 06:36:57;;;;;;;22.63;2.60;;;5.80;99.90;;;;;;5070520;28;20040;-73
2021/03/12 06:39:40;;;;;;;15.18;1.50;;;5.80;99.90;;;;;;5059185;28;20033;-73
2021/03/12 06:42:09;;;;;;;13.93;3.47;;;5.90;99.90;;;;;;5067749;28;20300;-73
2021/03/12 06:44:37;;;;;;;19.20;3.10;;;5.90;99.90;;;;;;5073754;28;20028;-73
2021/03/12 06:47:04;;;;;;;14.70;2.53;;;5.90;99.90;;;;;;5067607;28;20032;-74
2021/03/12 06:49:30;;;;;;;23.15;2.58;;;5.90;99.90;;;;;;5070483;28;20025;-74
2021/03/12 06:52:04;;;;;;;21.60;5.00;;;5.90;99.90;;;;;;5068016;28;20028;-74
2021/03/12 06:54:34;;;;;;;12.10;2.33;;;6.00;99.90;;;;;;5071101;28;20373;-74
2021/03/12 06:57:20;;;;;;;10.88;1.75;;;6.10;99.90;;;;;;5074768;28;20021;-75
2021/03/12 06:59:45;;;;;;;21.52;2.70;;;6.10;99.90;;;;;;5075291;28;20043;-74
2021/03/12 07:02:11;;;;;;;14.05;2.42;;;6.20;99.90;;;;;;5073518;28;20032;-74
2021/03/12 07:04:40;;;;;;;8.80;1.75;;;6.30;99.90;;;;;;5074361;28;20052;-74
2021/03/12 07:07:06;;;;;;;10.90;1.80;;;6.30;99.90;;;;;;5077278;28;20508;-74
2021/03/12 07:09:31;;;;;;;10.40;2.05;;;6.30;99.90;;;;;;5077252;28;20029;-73
2021/03/12 07:11:59;;;;;;;15.57;2.22;;;6.30;99.90;;;;;;5079447;28;20090;-73
2021/03/12 07:14:26;;;;;;;15.05;3.20;;;6.30;99.90;;;;;;5069535;28;20040;-72
2021/03/12 07:16:52;;;;;;;25.00;3.25;;;6.40;99.90;;;;;;5075185;28;20055;-74
2021/03/12 07:19:19;;;;;;;19.45;3.63;;;6.40;99.90;;;;;;5075323;28;20064;-72
2021/03/12 07:21:50;;;;;;;28.83;3.40;;;6.40;99.90;;;;;;5073304;28;20082;-72
2021/03/12 07:24:22;;;;;;;12.27;1.83;;;6.40;99.90;;;;;;5075024;28;20033;-73
2021/03/12 07:26:56;;;;;;;12.65;2.10;;;6.30;99.90;;;;;;5073375;28;20020;-74
2021/03/12 07:29:23;;;;;;;12.50;1.88;;;6.30;99.90;;;;;;5073576;28;20034;-75
2021/03/12 07:31:54;;;;;;;10.55;2.35;;;6.40;99.90;;;;;;5074530;28;20035;-74
2021/03/12 07:34:46;;;;;;;20.40;3.13;;;6.40;99.90;;;;;;5074540;28;20499;-75
2021/03/12 07:37:13;;;;;;;11.60;2.63;;;6.40;99.90;;;;;;5072633;28;20076;-72
2021/03/12 07:39:43;;;;;;;17.20;3.67;;;6.40;99.90;;;;;;5072771;28;20028;-75
2021/03/12 07:42:17;;;;;;;19.60;2.92;;;6.50;99.90;;;;;;5064889;28;20077;-73
2021/03/12 07:44:47;;;;;;;18.15;3.53;;;6.60;99.90;;;;;;5073157;28;20024;-73
2021/03/12 07:47:18;;;;;;;22.60;3.65;;;6.70;99.90;;;;;;5073487;28;20062;-74
2021/03/12 07:49:44;;;;;;;14.15;2.20;;;6.90;99.90;;;;;;5073839;28;20376;-74
2021/03/12 07:52:09;;;;;;;14.95;3.55;;;6.90;99.90;;;;;;5072394;28;20017;-73
2021/03/12 07:54:35;;;;;;;27.17;3.63;;;7.00;99.90;;;;;;5072806;28;20140;-73
2021/03/12 07:57:02;;;;;;;35.05;3.72;;;7.10;99.90;;;;;;5072039;28;20081;-74
2021/03/12 07:59:46;;;;;;;16.17;3.33;;;7.20;99.90;;;;;;5072271;28;20165;-74
2021/03/12 08:02:16;;;;;;;13.10;2.17;;;7.20;99.90;;;;;;5073084;28;20085;-75
2021/03/12 08:04:43;;;;;;;19.02;2.72;;;7.20;99.90;;;;;;5072156;28;20020;-74
2021/03/12 08:07:21;;;;;;;23.85;2.95;;;7.30;99.90;;;;;;5072262;28;20023;-74
2021/03/12 08:09:47;;;;;;;18.77;2.38;;;7.50;99.90;;;;;;5070526;28;20569;-74
2021/03/12 08:12:30;;;;;;;21.65;2.53;;;7.60;99.90;;;;;;5069133;28;20032;-74
2021/03/12 08:15:15;;;;;;;22.27;3.75;;;7.70;99.90;;;;;;5068863;28;20032;-74
2021/03/12 08:17:56;;;;;;;14.02;2.10;;;8.00;99.90;;;;;;5067221;28;20020;-74
2021/03/12 08:20:25;;;;;;;12.60;1.70;;;8.30;99.90;;;;;;5064971;28;20044;-74
2021/03/12 08:22:58;;;;;;;12.40;3.45;;;8.50;99.90;;;;;;5071316;28;20090;-73
2021/03/12 08:25:34;;;;;;;16.15;2.42;;;8.60;99.90;;;;;;5082536;28;20476;-71
2021/03/12 08:28:02;;;;;;;28.80;3.85;;;8.70;99.90;;;;;;5074827;28;20063;-73
2021/03/12 08:30:27;;;;;;;22.00;2.55;;;8.80;99.90;;;;;;5070873;28;20025;-72
2021/03/12 08:32:55;;;;;;;18.20;2.92;;;8.90;99.90;;;;;;5073347;28;20035;-73
2021/03/12 08:35:39;;;;;;;16.95;3.15;;;9.00;99.90;;;;;;5073411;28;20457;-73
2021/03/12 08:38:11;;;;;;;13.07;2.00;;;9.10;99.90;;;;;;5071048;28;20423;-72
2021/03/12 08:40:39;;;;;;;22.80;3.75;;;9.00;99.90;;;;;;5068920;28;20029;-75
2021/03/12 08:43:13;;;;;;;21.23;2.80;;;8.90;99.90;;;;;;5067326;28;20111;-71
2021/03/12 08:45:50;;;;;;;14.88;2.88;;;9.00;99.90;;;;;;5073179;28;20032;-74
2021/03/12 08:48:21;;;;;;;20.10;2.80;;;9.30;99.90;;;;;;5061507;28;20085;-75
2021/03/12 08:51:04;;;;;;;9.90;2.22;;;9.40;99.90;;;;;;5071527;28;20433;-72
2021/03/12 08:53:32;;;;;;;28.30;3.53;;;9.40;99.90;;;;;;5070510;28;20055;-73
2021/03/12 08:55:58;;;;;;;;;;;9.40;99.90;;;;;;5065052;28;20124;-73
2021/03/12 08:58:29;;;;;;;26.00;3.15;;;9.40;99.90;;;;;;5062570;28;20339;-73
2021/03/12 09:01:07;;;;;;;29.58;2.65;;;9.40;99.90;;;;;;5072779;28;20507;-73
2021/03/12 09:03:34;;;;;;;;;;;9.30;99.90;;;;;;5070898;28;20033;-70
2021/03/12 09:06:11;;;;;;;20.23;2.28;;;9.20;99.90;;;;;;5077026;28;19959;-73
2021/03/12 09:08:38;;;;;;;17.10;2.78;;;9.00;99.90;;;;;;5060863;28;20452;-72
2021/03/12 09:11:07;;;;;;;30.83;4.38;;;8.90;99.90;;;;;;5083777;28;20485;-73
2021/03/12 09:13:34;;;;;;;23.05;3.50;;;8.80;99.90;;;;;;5071057;28;20055;-72
2021/03/12 09:16:04;;;;;;;22.52;3.10;;;8.70;99.90;;;;;;5072255;28;20028;-73
2021/03/12 09:18:31;;;;;;;19.58;2.60;;;8.90;99.90;;;;;;5071114;28;20073;-74
2021/03/12 09:20:59;;;;;;;16.23;4.25;;;9.20;99.90;;;;;;5062215;28;20049;-72
2021/03/12 09:23:33;;;;;;;;;;;9.40;99.90;;;;;;5074225;28;20040;-72
2021/03/12 09:25:59;;;;;;;12.10;2.40;;;9.60;99.90;;;;;;5075983;28;19918;-73
2021/03/12 09:28:29;;;;;;;15.85;2.70;;;9.50;99.90;;;;;;5072436;28;20137;-71
2021/03/12 09:30:56;;;;;;;21.00;3.35;;;9.40;99.90;;;;;;5073317;28;20373;-72
2021/03/12 09:33:32;;;;;;;22.02;3.67;;;9.40;99.90;;;;;;5071905;28;20388;-72
2021/03/12 09:36:00;;;;;;;34.80;3.42;;;9.60;99.90;;;;;;5072381;28;20592;-74
2021/03/12 09:38:45;;;;;;;29.67;3.60;;;9.50;99.90;;;;;;5077323;28;20032;-71
2021/03/12 09:41:25;;;;;;;19.30;3.10;;;9.50;99.90;;;;;;5069969;28;20481;-72
2021/03/12 09:44:08;;;;;;;25.80;3.40;;;9.40;99.90;;;;;;5072876;28;20075;-74
2021/03/12 09:46:36;;;;;;;28.90;4.10;;;9.50;99.90;;;;;;5073332;28;20028;-76
2021/03/12 09:49:08;;;;;;;17.48;5.03;;;9.60;99.90;;;;;;5068550;28;20033;-72
2021/03/12 09:51:34;;;;;;;18.42;3.22;;;9.40;99.90;;;;;;5071380;28;20149;-73
2021/03/12 09:54:02;;;;;;;20.67;4.13;;;9.50;99.90;;;;;;5068090;28;20032;-72
2021/03/12 09:56:28;;;;;;;27.77;3.28;;;9.30;99.90;;;;;;5071323;28;20124;-73
2021/03/12 09:58:54;;;;;;;22.45;4.60;;;9.10;99.90;;;;;;5071332;28;20048;-73
2021/03/12 10:01:20;;;;;;;18.58;3.60;;;8.80;99.90;;;;;;5071380;28;20508;-73
2021/03/12 10:03:47;;;;;;;23.73;4.13;;;8.40;99.90;;;;;;5078014;28;20066;-74
2021/03/12 10:06:14;;;;;;;28.33;5.20;;;8.20;99.90;;;;;;5072925;28;20036;-74
2021/03/12 10:09:03;;;;;;;17.45;3.72;;;8.20;99.90;;;;;;5072076;28;20016;-72
2021/03/12 10:11:48;;;;;;;15.30;2.90;;;8.00;99.90;;;;;;5066165;28;20357;-75
2021/03/12 10:14:39;;;;;;;18.08;3.45;;;7.80;99.90;;;;;;5074207;28;20020;-73
2021/03/12 10:17:28;;;;;;;11.18;2.83;;;7.60;99.90;;;;;;5074737;28;20016;-75
2021/03/12 10:20:20;;;;;;;18.38;3.67;;;7.50;99.90;;;;;;5073884;28;20040;-73
2021/03/12 10:22:51;;;;;;;16.05;3.22;;;7.50;99.90;;;;;;5066544;28;20082;-74
2021/03/12 10:25:42;;;;;;;19.45;3.30;;;7.60;99.90;;;;;;5074915;28;20032;-72
2021/03/12 10:28:10;;;;;;;27.20;3.80;;;7.70;99.90;;;;;;5062540;28;20040;-73
2021/03/12 10:30:39;;;;;;;;;;;7.90;99.90;;;;;;5075281;28;20374;-72
2021/03/12 10:33:27;;;;;;;15.30;4.20;;;8.00;99.90;;;;;;5074715;28;19908;-74
2021/03/12 10:36:05;;;;;;;17.58;3.42;;;8.20;99.90;;;;;;5073161;28;20024;-74
2021/03/12 10:38:35;;;;;;;16.63;3.35;;;8.30;99.90;;;;;;5074624;28;20031;-74
2021/03/12 10:41:05;;;;;;;15.38;3.92;;;8.30;99.90;;;;;;5088010;28;20036;-73
2021/03/12 10:43:34;;;;;;;20.60;2.55;;;8.30;99.90;;;;;;5075521;28;20044;-72
2021/03/12 10:46:02;;;;;;;16.35;3.28;;;8.20;99.90;;;;;;5076037;28;20029;-74
2021/03/12 10:48:37;;;;;;;22.10;2.97;;;8.30;99.90;;;;;;5070104;28;20381;-75
2021/03/12 10:51:05;;;;;;;23.00;3.63;;;8.30;99.90;;;;;;5072452;28;20516;-75
2021/03/12 10:53:31;;;;;;;;;;;8.40;99.90;;;;;;5075782;28;20028;-76
2021/03/12 10:56:02;;;;;;;15.20;3.05;;;8.40;99.90;;;;;;5070732;28;19927;-74
2021/03/12 10:58:31;;;;;;;16.35;2.88;;;8.40;99.90;;;;;;5074854;28;20032;-74
2021/03/12 11:01:06;;;;;;;13.27;2.28;;;8.40;99.90;;;;;;5075715;28;20020;-74
2021/03/12 11:03:32;;;;;;;23.90;4.68;;;8.50;99.90;;;;;;5073669;28;20029;-74
2021/03/12 11:05:57;;;;;;;20.42;3.03;;;8.50;99.90;;;;;;5073469;28;20439;-74
2021/03/12 11:08:25;;;;;;;20.42;3.17;;;8.50;99.90;;;;;;5075003;28;20528;-74
2021/03/12 11:10:51;;;;;;;24.65;3.25;;;8.60;99.90;;;;;;5073269;28;20128;-74
2021/03/12 11:13:17;;;;;;;19.48;2.72;;;8.60;99.90;;;;;;5071878;28;20552;-74
2021/03/12 11:15:43;;;;;;;7.30;3.67;;;8.70;99.90;;;;;;5068409;28;20385;-73
2021/03/12 11:18:08;;;;;;;9.65;2.78;;;8.70;99.90;;;;;;5068276;28;20036;-74
2021/03/12 11:20:34;;;;;;;13.98;3.10;;;8.80;99.90;;;;;;5069000;28;20090;-75
2021/03/12 11:23:00;;;;;;;12.05;3.45;;;8.90;99.90;;;;;;5064396;28;20032;-74
2021/03/12 11:25:26;;;;;;;14.65;5.13;;;8.90;99.90;;;;;;5065440;28;20041;-74
2021/03/12 11:27:52;;;;;;;14.50;4.50;;;9.00;99.90;;;;;;5064679;28;20028;-74
2021/03/12 11:30:19;;;;;;;11.88;3.88;;;9.00;99.90;;;;;;5067085;28;20085;-73
2021/03/12 11:32:46;;;;;;;12.85;2.75;;;8.90;99.90;;;;;;5064904;28;20053;-73
2021/03/12 11:35:13;;;;;;;17.05;2.83;;;8.90;99.90;;;;;;5065526;28;20069;-75
2021/03/12 11:37:39;;;;;;;12.50;3.33;;;8.90;99.90;;;;;;5078795;28;20044;-74
2021/03/12 11:40:07;;;;;;;11.40;3.53;;;8.70;99.90;;;;;;5063583;28;20016;-73
2021/03/12 11:42:33;;;;;;;;;;;8.60;99.90;;;;;;5063332;28;20033;-74
2021/03/12 11:45:00;;;;;;;14.73;3.22;;;8.60;99.90;;;;;;5065968;28;19954;-76
2021/03/12 11:47:26;;;;;;;17.55;3.75;;;8.70;99.90;;;;;;5065967;28;20567;-76
2021/03/12 11:49:52;;;;;;;12.02;3.30;;;8.90;99.90;;;;;;5054240;28;20037;-75
2021/03/12 11:52:23;;;;;;;15.57;3.92;;;9.00;99.90;;;;;;5065323;28;20048;-74
2021/03/12 11:54:49;;;;;;;21.77;4.07;;;9.00;99.90;;;;;;5061980;28;20028;-75
2021/03/12 11:57:14;;;;;;;24.45;4.35;;;9.10;99.90;;;;;;5066267;28;20433;-75
2021/03/12 11:59:40;;;;;;;16.85;3.50;;;9.10;99.90;;;;;;5065049;28;20039;-75
2021/03/12 12:02:07;;;;;;;19.35;4.90;;;9.20;99.90;;;;;;5062931;28;20078;-76
2021/03/12 12:04:32;;;;;;;11.50;3.20;;;9.20;99.90;;;;;;5069667;28;20032;-74
2021/03/12 12:07:00;;;;;;;37.15;6.72;;;9.10;99.90;;;;;;5069325;28;21553;-74
2021/03/12 12:09:26;;;;;;;14.77;3.72;;;9.10;99.90;;;;;;5060083;28;20032;-75
2021/03/12 12:11:51;;;;;;;11.85;3.13;;;9.00;99.90;;;;;;5061317;28;20431;-75
2021/03/12 12:14:17;;;;;;;10.80;2.95;;;9.10;99.90;;;;;;5071628;28;20511;-73
2021/03/12 12:16:43;;;;;;;12.82;2.30;;;9.10;99.90;;;;;;5072059;28;20111;-75
2021/03/12 12:19:12;;;;;;;12.88;3.30;;;9.10;99.90;;;;;;5070144;28;20040;-71
2021/03/12 12:21:39;;;;;;;12.63;2.53;;;9.10;99.90;;;;;;5066107;28;20405;-72
2021/03/12 12:24:05;;;;;;;15.95;2.97;;;9.30;99.90;;;;;;5055636;28;20028;-73
2021/03/12 12:26:32;;;;;;;12.45;2.95;;;9.20;99.90;;;;;;5054577;28;20064;-72
2021/03/12 12:28:59;;;;;;;10.18;2.47;;;9.20;99.90;;;;;;5054813;28;20137;-71
2021/03/12 12:31:24;;;;;;;11.25;3.55;;;9.20;99.90;;;;;;5059989;28;20387;-72
2021/03/12 12:33:50;;;;;;;10.40;2.40;;;9.10;99.90;;;;;;5073646;28;20029;-73
2021/03/12 12:36:16;;;;;;;11.20;2.67;;;9.00;99.90;;;;;;5072136;28;20036;-77
2021/03/12 12:38:41;;;;;;;9.00;2.72;;;9.00;99.90;;;;;;5069584;28;20029;-74
2021/03/12 12:41:07;;;;;;;14.25;2.70;;;9.00;99.90;;;;;;5069745;28;20427;-75
2021/03/12 12:43:33;;;;;;;14.93;3.85;;;9.10;99.90;;;;;;5070662;28;20033;-74
2021/03/12 12:45:58;;;;;;;10.15;2.45;;;9.10;99.90;;;;;;5067120;28;20016;-74
2021/03/12 12:48:24;;;;;;;14.30;2.58;;;9.00;99.90;;;;;;5070343;28;20044;-73
2021/03/12 12:50:49;;;;;;;12.35;2.67;;;8.90;99.90;;;;;;5069883;28;20472;-75
2021/03/12 12:53:15;;;;;;;14.57;3.72;;;8.90;99.90;;;;;;5070944;28;20032;-73
2021/03/12 12:55:42;;;;;;;14.52;2.95;;;8.90;99.90;;;;;;5071800;28;20111;-73
2021/03/12 12:58:07;;;;;;;24.75;2.92;;;8.90;99.90;;;;;;5071105;28;20036;-72
2021/03/12 13:00:33;;;;;;;16.65;3.63;;;8.60;99.90;;;;;;5064900;28;20037;-74